MMTP/TAP METAR and TAF weather

Enter ICAO airport designator
Station Type Date Time Source
MMTP METAR 2019/02/16 16:40 UTC NOAA

MMTP 161640Z 24003KT 7SM BKN025TCU 29/23 A2991 RMK 8/200 HZY


Station Type Date Time Source
MMTP Decoded METAR 2019/02/16 16:40 UTC NOAA

Tapachula , Mexico (MMTP) 14-47N 092-23W
Feb 16, 2019 - 11:40 AM EST / 2019.02.16 1640 UTC
Wind: from the WSW (240 degrees) at 3 MPH (3 KT):0
Visibility: 7 mile(s):0
Sky conditions: mostly cloudy
Weather: Towering cumulus clouds observed
Temperature: 84 F (29 C)
Dew Point: 73 F (23 C)
Relative Humidity: 70%
Pressure (altimeter): 29.91 in. Hg (1012 hPa)
ob: MMTP 161640Z 24003KT 7SM BKN025TCU 29/23 A2991 RMK 8/200 HZY
cycle: 16

Station Type Date Time Source
MMTP TAF 2019/02/16 18:09 UTC NOAA

TAF MMTP 161706Z 1618/1724 24010KT P6SM BKN025
FM162100 24010KT P6SM SCT030
FM170300 00000KT P6SM SKC
FM171500 20010KT P6SM SCT015


Example: see airport list